createdAt,value
2018-02-03T00:00:16.044Z,0.00
2018-02-03T00:01:15.963Z,0.00
2018-02-03T00:02:16.963Z,0.00
2018-02-03T00:03:15.832Z,0.00
2018-02-03T00:04:15.826Z,0.00
2018-02-03T00:05:15.814Z,0.00
2018-02-03T00:06:15.806Z,0.00
2018-02-03T00:07:15.798Z,0.00
2018-02-03T00:08:15.792Z,0.00
2018-02-03T00:09:15.785Z,0.00
2018-02-03T00:10:16.820Z,0.00
2018-02-03T00:11:15.768Z,0.00
2018-02-03T00:12:16.965Z,0.00
2018-02-03T00:13:15.752Z,0.00
2018-02-03T00:14:15.755Z,0.00
2018-02-03T00:15:15.736Z,0.00
2018-02-03T00:16:15.733Z,0.00
2018-02-03T00:17:15.724Z,0.00
2018-02-03T00:18:15.714Z,0.00
2018-02-03T00:19:15.708Z,0.00
2018-02-03T00:20:15.697Z,0.00
2018-02-03T00:21:15.690Z,0.00
2018-02-03T00:22:15.684Z,0.00
2018-02-03T00:23:15.679Z,0.00
2018-02-03T00:24:15.667Z,0.00
2018-02-03T00:25:15.660Z,0.00
2018-02-03T00:26:15.654Z,0.00
2018-02-03T00:27:15.645Z,0.00
2018-02-03T00:28:15.637Z,0.00
2018-02-03T00:29:15.659Z,0.00
2018-02-03T00:30:15.623Z,0.00
2018-02-03T00:31:15.614Z,0.00
2018-02-03T00:32:15.608Z,0.00
2018-02-03T00:33:15.599Z,0.00
2018-02-03T00:34:15.593Z,0.00
2018-02-03T00:35:15.582Z,0.00
2018-02-03T00:36:15.574Z,0.00
2018-02-03T00:37:15.570Z,0.00
2018-02-03T00:38:15.556Z,0.00
2018-02-03T00:39:15.556Z,0.00
2018-02-03T00:40:15.545Z,0.00
2018-02-03T00:41:15.535Z,0.00
2018-02-03T00:42:15.526Z,0.00
2018-02-03T00:43:15.521Z,0.00
2018-02-03T00:44:15.514Z,0.00
2018-02-03T00:45:15.504Z,0.00
2018-02-03T00:46:24.188Z,0.00
2018-02-03T00:48:08.900Z,0.00
2018-02-03T00:49:08.861Z,0.00
2018-02-03T00:50:08.853Z,0.00
2018-02-03T00:51:08.846Z,0.00
2018-02-03T00:52:19.562Z,0.00
2018-02-03T00:54:11.302Z,0.00
2018-02-03T00:56:23.501Z,0.00
2018-02-03T00:57:23.456Z,0.00
2018-02-03T00:59:16.832Z,0.00
2018-02-03T01:00:16.816Z,0.00
2018-02-03T01:01:16.801Z,0.00
2018-02-03T01:02:16.792Z,0.00
2018-02-03T01:03:16.789Z,0.00
2018-02-03T01:04:16.780Z,0.00
2018-02-03T01:05:16.789Z,0.00
2018-02-03T01:06:16.762Z,0.00
2018-02-03T01:07:16.755Z,0.00
2018-02-03T01:08:16.745Z,0.00
2018-02-03T01:09:16.736Z,0.00
2018-02-03T01:11:46.848Z,0.00
2018-02-03T01:12:37.754Z,0.00
2018-02-03T01:14:58.804Z,0.00
2018-02-03T01:15:58.770Z,0.00
2018-02-03T01:16:58.774Z,0.00
2018-02-03T01:17:58.756Z,0.00
2018-02-03T01:18:58.748Z,0.00
2018-02-03T01:19:58.739Z,0.00
2018-02-03T01:20:58.760Z,0.00
2018-02-03T01:21:58.720Z,0.00
2018-02-03T01:22:58.712Z,0.00
2018-02-03T01:23:58.706Z,0.00
2018-02-03T01:24:58.698Z,0.00
2018-02-03T01:25:58.687Z,0.00
2018-02-03T01:26:58.679Z,0.00
2018-02-03T01:27:58.686Z,0.00
2018-02-03T01:28:58.662Z,0.00
2018-02-03T01:29:58.653Z,0.00
2018-02-03T01:30:58.650Z,0.00
2018-02-03T01:31:58.642Z,0.00
2018-02-03T01:32:58.631Z,0.00
2018-02-03T01:33:58.647Z,0.00
2018-02-03T01:34:58.613Z,0.00
2018-02-03T01:35:58.607Z,0.00
2018-02-03T01:36:58.599Z,0.00
2018-02-03T01:37:58.592Z,0.00
2018-02-03T01:38:58.580Z,0.00
2018-02-03T01:39:58.576Z,0.00
2018-02-03T01:40:58.569Z,0.00
2018-02-03T01:41:58.557Z,0.00
2018-02-03T01:42:58.548Z,0.00
2018-02-03T01:43:58.544Z,0.00
2018-02-03T01:44:58.545Z,0.00
2018-02-03T01:45:58.525Z,0.00
2018-02-03T01:46:58.518Z,0.00
2018-02-03T01:47:58.509Z,0.00
2018-02-03T01:48:58.502Z,0.00
2018-02-03T01:49:58.494Z,0.00
2018-02-03T01:50:58.484Z,0.00
2018-02-03T01:51:58.477Z,0.00
2018-02-03T01:52:58.473Z,0.00
2018-02-03T01:53:58.461Z,0.00
2018-02-03T01:54:58.454Z,0.00
2018-02-03T01:55:58.445Z,0.00
2018-02-03T01:56:58.437Z,0.00
2018-02-03T01:57:58.435Z,0.00
2018-02-03T01:58:58.421Z,0.00
2018-02-03T01:59:58.418Z,0.00
2018-02-03T02:00:58.404Z,0.00
2018-02-03T02:01:58.396Z,0.00
2018-02-03T02:02:58.389Z,0.00
2018-02-03T02:03:58.386Z,0.00
2018-02-03T02:04:58.372Z,0.00
2018-02-03T02:05:58.363Z,0.00
2018-02-03T02:06:58.360Z,0.00
2018-02-03T02:07:58.350Z,0.00
2018-02-03T02:08:58.340Z,0.00
2018-02-03T02:09:58.331Z,0.00
2018-02-03T02:10:58.326Z,0.00
2018-02-03T02:11:58.317Z,0.00
2018-02-03T02:12:58.307Z,0.00
2018-02-03T02:13:58.305Z,0.00
2018-02-03T02:14:58.291Z,0.00
2018-02-03T02:15:58.284Z,0.00
2018-02-03T02:16:58.279Z,0.00
2018-02-03T02:17:58.268Z,0.00
2018-02-03T02:18:58.261Z,0.00
2018-02-03T02:19:58.251Z,0.00
2018-02-03T02:20:58.248Z,0.00
2018-02-03T02:21:58.235Z,0.00
2018-02-03T02:22:58.230Z,0.00
2018-02-03T02:23:58.224Z,0.00
2018-02-03T02:24:58.210Z,0.00
2018-02-03T02:25:58.201Z,0.00
2018-02-03T02:26:58.196Z,0.00
2018-02-03T02:27:58.192Z,0.00
2018-02-03T02:28:58.184Z,0.00
2018-02-03T02:29:58.174Z,0.00
2018-02-03T02:30:58.162Z,0.00
2018-02-03T02:31:58.156Z,0.00
2018-02-03T02:32:58.147Z,0.00
2018-02-03T02:33:58.142Z,0.00
2018-02-03T02:34:58.131Z,0.00
2018-02-03T02:35:58.124Z,0.00
2018-02-03T02:36:58.119Z,0.00
2018-02-03T02:37:58.109Z,0.00
2018-02-03T02:38:58.098Z,0.00
2018-02-03T02:39:58.090Z,0.00
2018-02-03T02:40:58.085Z,0.00
2018-02-03T02:41:58.075Z,0.00
2018-02-03T02:42:58.064Z,0.00
2018-02-03T02:43:58.064Z,0.00
2018-02-03T02:44:58.050Z,0.00
2018-02-03T02:45:58.045Z,0.00
2018-02-03T02:46:58.034Z,0.00
2018-02-03T02:47:58.025Z,0.00
2018-02-03T02:48:58.023Z,0.00
2018-02-03T02:49:58.013Z,0.00
2018-02-03T02:50:58.004Z,0.00
2018-02-03T02:51:57.996Z,0.00
2018-02-03T02:52:57.993Z,0.00
2018-02-03T02:53:57.979Z,0.00
2018-02-03T02:54:57.972Z,0.00
2018-02-03T02:55:57.963Z,0.00
2018-02-03T02:56:57.956Z,0.00
2018-02-03T02:57:57.947Z,0.00
2018-02-03T02:58:57.940Z,0.00
2018-02-03T02:59:57.931Z,0.00
2018-02-03T03:00:57.923Z,0.00
2018-02-03T03:01:57.917Z,0.00
2018-02-03T03:02:57.908Z,0.00
2018-02-03T03:03:57.899Z,0.00
2018-02-03T03:23:16.502Z,0.00
2018-02-03T03:24:16.451Z,0.00
2018-02-03T03:25:16.437Z,0.00
2018-02-03T03:26:16.429Z,0.00
2018-02-03T03:27:16.416Z,0.00
2018-02-03T03:28:16.400Z,0.00
2018-02-03T03:29:16.399Z,0.00
2018-02-03T03:30:16.384Z,0.00
2018-02-03T03:31:16.369Z,0.00
2018-02-03T03:32:16.358Z,0.00
2018-02-03T03:33:16.351Z,0.00
2018-02-03T03:34:16.345Z,0.00
2018-02-03T03:35:16.335Z,0.00
2018-02-03T03:36:16.316Z,0.00
2018-02-03T03:37:16.312Z,0.00
2018-02-03T03:38:16.300Z,0.00
2018-02-03T03:39:16.292Z,0.00
2018-02-03T03:40:16.281Z,0.00
2018-02-03T03:41:16.273Z,0.00
2018-02-03T03:42:16.264Z,0.00
2018-02-03T03:43:16.256Z,0.00
2018-02-03T03:44:16.245Z,0.00
2018-02-03T03:45:16.249Z,0.00
2018-02-03T03:46:16.230Z,0.00
2018-02-03T03:47:16.224Z,0.00
2018-02-03T03:48:16.215Z,0.00
2018-02-03T03:49:16.205Z,0.00
2018-02-03T03:50:16.197Z,0.00
2018-02-03T03:51:16.199Z,0.00
2018-02-03T03:52:16.181Z,0.00
2018-02-03T03:53:16.172Z,0.00
2018-02-03T03:54:16.167Z,0.00
2018-02-03T03:55:16.177Z,0.00
2018-02-03T03:56:16.147Z,0.00
2018-02-03T03:57:16.139Z,0.00
2018-02-03T03:58:16.137Z,0.00
2018-02-03T03:59:16.122Z,0.00
2018-02-03T04:00:16.114Z,0.00
2018-02-03T04:01:16.129Z,0.00
2018-02-03T04:02:16.111Z,0.00
2018-02-03T04:03:16.089Z,0.00
2018-02-03T04:04:16.080Z,0.00
2018-02-03T04:05:16.075Z,0.00
2018-02-03T04:06:16.064Z,0.00
2018-02-03T04:07:16.116Z,0.00
2018-02-03T04:08:16.064Z,0.00
2018-02-03T04:09:16.056Z,0.00
2018-02-03T04:10:16.032Z,0.00
2018-02-03T04:11:16.026Z,0.00
2018-02-03T04:12:16.015Z,0.00
2018-02-03T04:13:16.008Z,0.00
2018-02-03T04:14:15.999Z,0.00
2018-02-03T04:15:15.992Z,0.00
2018-02-03T04:16:15.983Z,0.00
2018-02-03T04:17:15.973Z,0.00
2018-02-03T04:18:15.968Z,0.00
2018-02-03T04:19:15.962Z,0.00
2018-02-03T04:20:15.952Z,0.00
2018-02-03T04:21:15.944Z,0.00
2018-02-03T04:22:15.936Z,0.00
2018-02-03T04:23:15.928Z,0.00
2018-02-03T04:24:15.919Z,0.00
2018-02-03T04:25:15.911Z,0.00
2018-02-03T04:26:15.907Z,0.00
2018-02-03T04:27:15.896Z,0.00
2018-02-03T04:28:15.916Z,0.00
2018-02-03T04:29:15.879Z,0.00
2018-02-03T04:30:15.869Z,0.00
2018-02-03T04:31:15.864Z,0.00
2018-02-03T04:32:15.853Z,0.00
2018-02-03T04:33:15.847Z,0.00
2018-02-03T04:34:15.838Z,0.00
2018-02-03T04:35:15.830Z,0.00
2018-02-03T04:36:15.822Z,0.00
2018-02-03T04:37:15.815Z,0.00
2018-02-03T04:38:15.807Z,0.00
2018-02-03T04:39:15.801Z,0.00
2018-02-03T04:40:15.790Z,0.00
2018-02-03T04:41:15.784Z,0.00
2018-02-03T04:42:15.774Z,0.00
2018-02-03T04:43:15.770Z,0.00
2018-02-03T04:44:15.758Z,0.00
2018-02-03T04:45:15.750Z,0.00
2018-02-03T04:46:15.743Z,0.00
2018-02-03T04:47:15.735Z,0.00
2018-02-03T04:48:15.729Z,0.00
2018-02-03T04:49:15.719Z,0.00
2018-02-03T04:50:15.718Z,0.00
2018-02-03T04:51:15.706Z,0.00
2018-02-03T04:52:15.694Z,0.00
2018-02-03T04:53:15.687Z,0.00
2018-02-03T04:54:15.678Z,0.00
2018-02-03T04:55:15.673Z,0.00
2018-02-03T04:56:15.663Z,0.00
2018-02-03T04:57:15.659Z,0.00
2018-02-03T04:58:15.648Z,0.00
2018-02-03T04:59:15.640Z,0.00
2018-02-03T05:00:15.674Z,0.00
2018-02-03T05:01:15.623Z,0.00
2018-02-03T05:02:15.621Z,0.00
2018-02-03T05:03:15.606Z,0.00
2018-02-03T05:04:15.685Z,0.00
2018-02-03T05:05:15.592Z,0.00
2018-02-03T05:06:15.582Z,0.00
2018-02-03T05:07:15.580Z,0.00
2018-02-03T05:08:15.569Z,0.00
2018-02-03T05:09:15.564Z,0.00
2018-02-03T05:10:15.553Z,0.00
2018-02-03T05:11:15.586Z,0.00
2018-02-03T05:12:15.536Z,0.00
2018-02-03T05:13:15.529Z,0.00
2018-02-03T05:14:15.524Z,0.00
2018-02-03T05:15:15.513Z,0.00
2018-02-03T05:16:15.503Z,0.00
2018-02-03T05:17:15.496Z,0.00
2018-02-03T05:18:15.492Z,0.00
2018-02-03T05:19:15.479Z,0.00
2018-02-03T05:20:15.470Z,0.00
2018-02-03T05:21:15.462Z,0.00
2018-02-03T05:22:15.462Z,0.00
2018-02-03T05:23:15.453Z,0.00
2018-02-03T05:24:15.441Z,0.00
2018-02-03T05:25:15.493Z,0.00
2018-02-03T05:26:15.426Z,0.00
2018-02-03T05:27:15.417Z,0.00
2018-02-03T05:28:15.413Z,0.00
2018-02-03T05:29:15.406Z,0.00
2018-02-03T05:30:15.393Z,0.00
2018-02-03T05:31:15.383Z,0.00
2018-02-03T05:32:15.375Z,0.00
2018-02-03T05:33:15.368Z,0.00
2018-02-03T05:34:15.358Z,0.00
2018-02-03T05:35:15.352Z,0.00
2018-02-03T05:36:15.343Z,0.00
2018-02-03T05:37:15.386Z,0.00
2018-02-03T05:38:15.328Z,0.00
2018-02-03T05:39:15.322Z,0.00
2018-02-03T05:40:15.311Z,0.00
2018-02-03T05:41:15.301Z,0.00
2018-02-03T05:42:15.299Z,0.00
2018-02-03T05:43:15.290Z,0.00
2018-02-03T05:44:15.277Z,0.00
2018-02-03T05:45:15.269Z,0.00
2018-02-03T05:46:15.262Z,0.00
2018-02-03T05:47:15.253Z,0.00
2018-02-03T05:48:15.245Z,0.00
2018-02-03T05:49:15.238Z,0.00
2018-02-03T05:50:15.230Z,0.00
2018-02-03T05:51:15.223Z,0.00
2018-02-03T05:52:15.212Z,0.00
2018-02-03T05:53:15.206Z,0.00
2018-02-03T05:54:15.198Z,0.00
2018-02-03T05:55:15.195Z,0.00
2018-02-03T05:56:15.204Z,0.00
2018-02-03T05:57:15.171Z,0.00
2018-02-03T05:58:15.164Z,0.00
2018-02-03T05:59:15.157Z,0.00
2018-02-03T06:00:15.149Z,0.00
2018-02-03T06:01:15.140Z,0.00
2018-02-03T06:02:15.131Z,0.00
2018-02-03T06:03:15.181Z,0.00
2018-02-03T06:04:15.120Z,0.00
2018-02-03T06:05:15.108Z,0.00
2018-02-03T06:06:15.100Z,0.00
2018-02-03T06:07:15.093Z,0.00
2018-02-03T06:08:15.086Z,0.00
2018-02-03T06:09:15.080Z,0.00
2018-02-03T06:10:15.070Z,0.00
2018-02-03T06:11:15.062Z,0.00
2018-02-03T06:12:15.052Z,0.00
2018-02-03T06:13:15.043Z,0.00
2018-02-03T06:14:15.034Z,0.00
2018-02-03T06:15:15.028Z,0.00
2018-02-03T06:16:15.026Z,0.00
2018-02-03T06:17:15.012Z,0.00
2018-02-03T06:18:15.004Z,0.00
2018-02-03T06:19:14.997Z,0.00
2018-02-03T06:20:14.986Z,0.00
2018-02-03T06:21:14.980Z,0.00
2018-02-03T06:22:14.970Z,0.00
2018-02-03T06:23:23.642Z,0.00
2018-02-03T06:25:17.438Z,0.00
2018-02-03T06:27:29.402Z,0.00
2018-02-03T06:28:38.000Z,0.00
2018-02-03T06:30:22.720Z,0.00
2018-02-03T06:31:22.709Z,0.00
2018-02-03T06:32:22.695Z,0.00
2018-02-03T06:33:22.688Z,0.00
2018-02-03T06:34:31.321Z,0.00
2018-02-03T06:36:25.186Z,0.00
2018-02-03T06:38:46.210Z,0.00
2018-02-03T06:39:37.113Z,0.00
2018-02-03T06:40:45.752Z,0.00
2018-02-03T06:42:31.512Z,4.00
2018-02-03T06:43:31.454Z,0.00
2018-02-03T06:45:24.858Z,4.00
2018-02-03T06:46:24.849Z,4.00
2018-02-03T06:47:33.516Z,4.00
2018-02-03T06:49:17.769Z,4.00
2018-02-03T06:50:17.697Z,8.00
2018-02-03T06:52:11.074Z,8.00
2018-02-03T06:53:11.060Z,8.00
2018-02-03T06:54:11.058Z,8.00
2018-02-03T06:55:11.044Z,12.00
2018-02-03T06:56:11.038Z,12.00
2018-02-03T06:57:11.027Z,12.00
2018-02-03T06:58:11.019Z,16.00
2018-02-03T06:59:11.011Z,16.00
2018-02-03T07:00:11.000Z,16.00
2018-02-03T07:01:10.996Z,20.00
2018-02-03T07:02:10.988Z,20.00
2018-02-03T07:03:11.001Z,20.00
2018-02-03T07:04:10.975Z,24.00
2018-02-03T07:05:10.958Z,28.00
2018-02-03T07:06:10.950Z,28.00
2018-02-03T07:07:10.941Z,28.00
2018-02-03T07:08:10.977Z,28.00
2018-02-03T07:09:10.931Z,28.00
2018-02-03T07:10:10.921Z,32.00
2018-02-03T07:11:10.909Z,36.00
2018-02-03T07:12:10.902Z,36.00
2018-02-03T07:13:10.892Z,40.00
2018-02-03T07:14:10.892Z,40.00
2018-02-03T07:15:10.917Z,44.00
2018-02-03T07:16:10.867Z,48.00
2018-02-03T07:17:10.891Z,48.00
2018-02-03T07:18:10.849Z,48.00
2018-02-03T07:19:10.840Z,52.00
2018-02-03T07:20:10.832Z,56.00
2018-02-03T07:21:10.826Z,56.00
2018-02-03T07:22:10.816Z,60.00
2018-02-03T07:23:10.806Z,64.00
2018-02-03T07:24:10.798Z,68.00
2018-02-03T07:25:10.789Z,68.00
2018-02-03T07:26:10.786Z,72.00
2018-02-03T07:27:10.777Z,72.00
2018-02-03T07:28:10.762Z,80.00
2018-02-03T07:29:10.757Z,80.00
2018-02-03T07:30:10.748Z,84.00
2018-02-03T07:31:10.736Z,84.00
2018-02-03T07:32:10.746Z,88.00
2018-02-03T07:33:10.723Z,88.00
2018-02-03T07:34:10.714Z,96.00
2018-02-03T07:35:10.702Z,100.00
2018-02-03T07:36:10.693Z,104.00
2018-02-03T07:37:10.689Z,104.00
2018-02-03T07:38:10.679Z,104.00
2018-02-03T07:39:10.671Z,108.00
2018-02-03T07:40:10.673Z,112.00
2018-02-03T07:41:10.661Z,116.00
2018-02-03T07:42:10.647Z,124.00
2018-02-03T07:43:10.642Z,124.00
2018-02-03T07:44:10.631Z,132.00
2018-02-03T07:45:10.618Z,132.00
2018-02-03T07:46:10.611Z,136.00
2018-02-03T07:47:10.601Z,140.00
2018-02-03T07:48:10.603Z,140.00
2018-02-03T07:49:10.600Z,144.00
2018-02-03T07:50:10.578Z,140.00
2018-02-03T07:51:10.570Z,144.00
2018-02-03T07:52:10.561Z,144.00
2018-02-03T07:53:10.556Z,144.00
2018-02-03T07:54:10.544Z,144.00
2018-02-03T07:55:19.661Z,148.00
2018-02-03T07:57:03.958Z,152.00
2018-02-03T07:58:03.917Z,152.00
2018-02-03T07:59:03.930Z,152.00
2018-02-03T08:00:03.955Z,156.00
2018-02-03T08:01:03.894Z,156.00
2018-02-03T08:02:03.885Z,156.00
2018-02-03T08:03:03.873Z,160.00
2018-02-03T08:04:03.867Z,156.00
2018-02-03T08:05:03.863Z,160.00
2018-02-03T08:06:03.851Z,164.00
2018-02-03T08:07:03.840Z,164.00
2018-02-03T08:08:03.833Z,168.00
2018-02-03T08:09:03.823Z,164.00
2018-02-03T08:10:03.816Z,168.00
2018-02-03T08:11:03.810Z,172.00
2018-02-03T08:12:03.805Z,172.00
2018-02-03T08:13:03.796Z,176.00
2018-02-03T08:14:03.780Z,172.00
2018-02-03T08:15:03.772Z,184.00
2018-02-03T08:16:03.762Z,184.00
2018-02-03T08:17:03.759Z,188.00
2018-02-03T08:18:03.746Z,188.00
2018-02-03T08:19:03.743Z,192.00
2018-02-03T08:20:03.736Z,200.00
2018-02-03T08:21:03.721Z,192.00
2018-02-03T08:22:03.711Z,200.00
2018-02-03T08:23:03.718Z,200.00
2018-02-03T08:24:03.693Z,204.00
2018-02-03T08:25:03.686Z,204.00
2018-02-03T08:26:03.680Z,212.00
2018-02-03T08:27:03.667Z,212.00
2018-02-03T08:28:03.661Z,212.00
2018-02-03T08:29:03.653Z,212.00
2018-02-03T08:30:03.644Z,220.00
2018-02-03T08:31:03.635Z,224.00
2018-02-03T08:32:03.626Z,228.00
2018-02-03T08:33:03.619Z,236.00
2018-02-03T08:34:03.614Z,232.00
2018-02-03T08:35:03.617Z,244.00
2018-02-03T08:36:03.592Z,248.00
2018-02-03T08:37:03.582Z,248.00
2018-02-03T08:38:03.573Z,252.00
2018-02-03T08:39:03.571Z,252.00
2018-02-03T08:40:03.560Z,256.00
2018-02-03T08:41:03.550Z,256.00
2018-02-03T08:42:03.545Z,256.00
2018-02-03T08:43:03.536Z,260.00
2018-02-03T08:44:03.525Z,260.00
2018-02-03T08:45:03.516Z,272.00
2018-02-03T08:46:03.504Z,276.00
2018-02-03T08:47:03.500Z,280.00
2018-02-03T08:48:03.497Z,284.00
2018-02-03T08:49:03.481Z,288.00
2018-02-03T08:50:03.480Z,292.00
2018-02-03T08:51:03.462Z,296.00
2018-02-03T08:52:03.454Z,296.00
2018-02-03T08:53:03.448Z,304.00
2018-02-03T08:54:03.437Z,304.00
2018-02-03T08:55:03.433Z,312.00
2018-02-03T08:56:03.424Z,320.00
2018-02-03T08:57:03.418Z,316.00
2018-02-03T08:58:03.404Z,320.00
2018-02-03T08:59:03.400Z,320.00
2018-02-03T09:00:03.389Z,324.00
2018-02-03T09:01:03.384Z,328.00
2018-02-03T09:02:03.371Z,336.00
2018-02-03T09:03:03.363Z,336.00
2018-02-03T09:04:03.353Z,344.00
2018-02-03T09:05:03.390Z,352.00
2018-02-03T09:06:03.338Z,356.00
2018-02-03T09:07:03.330Z,368.00
2018-02-03T09:08:03.323Z,368.00
2018-02-03T09:09:03.315Z,372.00
2018-02-03T09:10:03.306Z,372.00
2018-02-03T09:11:03.298Z,372.00
2018-02-03T09:12:03.290Z,364.00
2018-02-03T09:13:03.279Z,368.00
2018-02-03T09:14:03.275Z,372.00
2018-02-03T09:15:03.262Z,372.00
2018-02-03T09:16:03.258Z,380.00
2018-02-03T09:17:03.297Z,384.00
2018-02-03T09:18:03.242Z,384.00
2018-02-03T09:19:03.233Z,392.00
2018-02-03T09:20:03.224Z,392.00
2018-02-03T09:21:03.251Z,408.00
2018-02-03T09:22:03.205Z,412.00
2018-02-03T09:23:03.198Z,428.00
2018-02-03T09:24:03.191Z,424.00
2018-02-03T09:25:03.182Z,432.00
2018-02-03T09:26:03.174Z,440.00
2018-02-03T09:27:03.165Z,452.00
2018-02-03T09:28:03.165Z,452.00
2018-02-03T09:29:03.147Z,464.00
2018-02-03T09:30:03.140Z,460.00
2018-02-03T09:31:03.130Z,472.00
2018-02-03T09:32:03.124Z,480.00
2018-02-03T09:33:03.118Z,476.00
2018-02-03T09:34:03.115Z,476.00
2018-02-03T09:35:03.101Z,488.00
2018-02-03T09:36:03.093Z,492.00
2018-02-03T09:37:03.083Z,500.00
2018-02-03T09:38:03.074Z,496.00
2018-02-03T09:39:03.070Z,492.00
2018-02-03T09:40:03.059Z,484.00
2018-02-03T09:41:03.050Z,472.00
2018-02-03T09:42:03.050Z,476.00
2018-02-03T09:43:03.034Z,480.00
2018-02-03T09:44:03.025Z,476.00
2018-02-03T09:45:03.019Z,480.00
2018-02-03T09:46:03.027Z,472.00
2018-02-03T09:47:03.005Z,472.00
2018-02-03T09:48:02.994Z,460.00
2018-02-03T09:49:02.990Z,460.00
2018-02-03T09:50:02.975Z,452.00
2018-02-03T09:51:02.970Z,444.00
2018-02-03T09:52:02.961Z,400.00
2018-02-03T09:53:02.952Z,416.00
2018-02-03T09:54:11.681Z,408.00
2018-02-03T09:55:56.440Z,444.00
2018-02-03T09:56:56.360Z,448.00
2018-02-03T09:57:56.352Z,452.00
2018-02-03T09:58:56.341Z,472.00
2018-02-03T09:59:56.376Z,476.00
2018-02-03T10:00:56.376Z,468.00
2018-02-03T10:01:56.323Z,460.00
2018-02-03T10:02:56.309Z,444.00
2018-02-03T10:03:56.302Z,420.00
2018-02-03T10:04:56.292Z,416.00
2018-02-03T10:05:56.286Z,432.00
2018-02-03T10:06:56.276Z,436.00
2018-02-03T10:07:56.269Z,444.00
2018-02-03T10:08:56.261Z,452.00
2018-02-03T10:09:56.256Z,456.00
2018-02-03T10:10:56.245Z,444.00
2018-02-03T10:11:56.238Z,416.00
2018-02-03T10:12:56.230Z,384.00
2018-02-03T10:13:56.222Z,364.00
2018-02-03T10:14:56.211Z,356.00
2018-02-03T10:15:56.211Z,360.00
2018-02-03T10:16:56.206Z,364.00
2018-02-03T10:17:56.187Z,368.00
2018-02-03T10:18:56.182Z,360.00
2018-02-03T10:19:56.172Z,368.00
2018-02-03T10:20:56.163Z,376.00
2018-02-03T10:21:56.206Z,384.00
2018-02-03T10:22:56.152Z,396.00
2018-02-03T10:23:56.142Z,396.00
2018-02-03T10:24:56.131Z,408.00
2018-02-03T10:25:56.123Z,412.00
2018-02-03T10:26:56.121Z,408.00
2018-02-03T10:27:56.108Z,420.00
2018-02-03T10:28:56.101Z,444.00
2018-02-03T10:29:56.092Z,460.00
2018-02-03T10:30:56.083Z,464.00
2018-02-03T10:31:56.079Z,464.00
2018-02-03T10:32:56.065Z,460.00
2018-02-03T10:33:56.061Z,460.00
2018-02-03T10:34:56.051Z,460.00
2018-02-03T10:35:56.047Z,456.00
2018-02-03T10:36:56.037Z,464.00
2018-02-03T10:37:56.028Z,460.00
2018-02-03T10:38:56.019Z,480.00
2018-02-03T10:39:56.011Z,484.00
2018-02-03T10:40:56.004Z,496.00
2018-02-03T10:41:55.994Z,520.00
2018-02-03T10:42:55.987Z,516.00
2018-02-03T10:43:55.977Z,520.00
2018-02-03T10:44:55.971Z,524.00
2018-02-03T10:45:55.961Z,504.00
2018-02-03T10:46:55.954Z,500.00
2018-02-03T10:47:55.948Z,496.00
2018-02-03T10:48:55.937Z,496.00
2018-02-03T10:49:55.931Z,492.00
2018-02-03T10:50:55.941Z,472.00
2018-02-03T10:51:55.916Z,464.00
2018-02-03T10:52:55.906Z,452.00
2018-02-03T10:53:55.904Z,436.00
2018-02-03T10:54:55.894Z,432.00
2018-02-03T10:55:55.881Z,416.00
2018-02-03T10:56:55.874Z,400.00
2018-02-03T10:57:55.868Z,392.00
2018-02-03T10:58:55.857Z,384.00
2018-02-03T10:59:55.851Z,388.00
2018-02-03T11:00:55.847Z,396.00
2018-02-03T11:01:55.835Z,412.00
2018-02-03T11:02:55.828Z,424.00
2018-02-03T11:03:55.819Z,424.00
2018-02-03T11:04:55.811Z,428.00
2018-02-03T11:05:55.804Z,436.00
2018-02-03T11:06:55.799Z,428.00
2018-02-03T11:07:55.789Z,420.00
2018-02-03T11:08:55.780Z,404.00
2018-02-03T11:09:55.772Z,384.00
2018-02-03T11:10:55.762Z,364.00
2018-02-03T11:11:55.755Z,360.00
2018-02-03T11:12:55.755Z,364.00
2018-02-03T11:13:55.740Z,368.00
2018-02-03T11:14:55.732Z,380.00
2018-02-03T11:15:55.729Z,384.00
2018-02-03T11:16:55.717Z,404.00
2018-02-03T11:17:55.707Z,412.00
2018-02-03T11:18:55.703Z,416.00
2018-02-03T11:19:55.697Z,400.00
2018-02-03T11:20:55.684Z,380.00
2018-02-03T11:21:55.679Z,376.00
2018-02-03T11:22:55.674Z,372.00
2018-02-03T11:23:55.662Z,368.00
2018-02-03T11:24:55.652Z,364.00
2018-02-03T11:25:55.646Z,356.00
2018-02-03T11:26:55.642Z,348.00
2018-02-03T11:27:55.629Z,344.00
2018-02-03T11:28:55.622Z,344.00
2018-02-03T11:29:55.620Z,344.00
2018-02-03T11:30:55.606Z,348.00
2018-02-03T11:31:55.620Z,356.00
2018-02-03T11:32:55.588Z,364.00
2018-02-03T11:33:55.583Z,380.00
2018-02-03T11:34:55.576Z,380.00
2018-02-03T11:36:03.732Z,396.00
2018-02-03T11:37:48.956Z,416.00
2018-02-03T11:38:57.625Z,448.00
2018-02-03T11:40:51.437Z,480.00
2018-02-03T11:41:42.304Z,484.00
2018-02-03T11:42:42.292Z,476.00
2018-02-03T11:43:42.287Z,500.00
2018-02-03T11:44:42.281Z,508.00
2018-02-03T11:47:11.919Z,552.00
2018-02-03T11:49:33.930Z,600.00
2018-02-03T11:50:32.518Z,620.00
2018-02-03T11:52:25.818Z,660.00
2018-02-03T11:53:16.710Z,692.00
2018-02-03T11:54:16.708Z,704.00
2018-02-03T11:55:16.713Z,720.00
2018-02-03T11:56:16.685Z,732.00
2018-02-03T11:57:16.689Z,736.00
2018-02-03T11:58:16.676Z,732.00
2018-02-03T11:59:16.660Z,740.00
2018-02-03T12:00:16.654Z,752.00
2018-02-03T12:01:16.650Z,764.00
2018-02-03T12:02:16.654Z,776.00
2018-02-03T12:03:16.630Z,776.00
2018-02-03T12:04:16.622Z,764.00
2018-02-03T12:05:16.625Z,728.00
2018-02-03T12:06:16.649Z,680.00
2018-02-03T12:07:16.595Z,652.00
2018-02-03T12:08:16.587Z,640.00
2018-02-03T12:09:16.670Z,616.00
2018-02-03T12:10:16.643Z,588.00
2018-02-03T12:11:16.566Z,548.00
2018-02-03T12:12:16.556Z,540.00
2018-02-03T12:13:16.551Z,540.00
2018-02-03T12:14:16.543Z,568.00
2018-02-03T12:15:16.534Z,604.00
2018-02-03T12:16:16.526Z,636.00
2018-02-03T12:17:23.725Z,668.00
2018-02-03T12:19:09.999Z,716.00
2018-02-03T12:20:09.890Z,736.00
2018-02-03T12:21:09.880Z,736.00
2018-02-03T12:22:09.892Z,732.00
2018-02-03T12:23:09.894Z,732.00
2018-02-03T12:24:09.866Z,728.00
2018-02-03T12:25:09.847Z,736.00
2018-02-03T12:26:09.845Z,756.00
2018-02-03T12:27:09.832Z,764.00
2018-02-03T12:28:09.860Z,800.00
2018-02-03T12:29:09.865Z,860.00
2018-02-03T12:30:09.808Z,944.00
2018-02-03T12:31:09.825Z,1044.00
2018-02-03T12:32:09.796Z,1108.00
2018-02-03T12:33:09.787Z,1128.00
2018-02-03T12:34:09.780Z,1116.00
2018-02-03T12:35:09.774Z,1108.00
2018-02-03T12:36:09.763Z,1076.00
2018-02-03T12:37:09.755Z,1044.00
2018-02-03T12:38:09.749Z,1028.00
2018-02-03T12:39:09.747Z,1004.00
2018-02-03T12:40:09.738Z,976.00
2018-02-03T12:41:09.741Z,932.00
2018-02-03T12:42:09.718Z,884.00
2018-02-03T12:43:09.710Z,856.00
2018-02-03T12:44:09.701Z,824.00
2018-02-03T12:45:09.703Z,756.00
2018-02-03T12:46:16.859Z,664.00
2018-02-03T12:48:03.164Z,572.00
2018-02-03T12:49:03.070Z,560.00
2018-02-03T12:50:03.062Z,580.00
2018-02-03T12:51:03.058Z,592.00
2018-02-03T12:52:03.055Z,620.00
2018-02-03T12:53:10.255Z,628.00
2018-02-03T12:54:57.446Z,700.00
2018-02-03T12:55:57.450Z,720.00
2018-02-03T12:56:57.412Z,764.00
2018-02-03T12:57:57.395Z,800.00
2018-02-03T12:58:57.448Z,844.00
2018-02-03T12:59:57.529Z,880.00
2018-02-03T13:00:57.369Z,912.00
2018-02-03T13:01:57.370Z,936.00
2018-02-03T13:02:57.361Z,956.00
2018-02-03T13:03:57.355Z,984.00
2018-02-03T13:04:57.347Z,1016.00
2018-02-03T13:05:57.334Z,1056.00
2018-02-03T13:06:57.328Z,1064.00
2018-02-03T13:07:57.329Z,1112.00
2018-02-03T13:08:57.311Z,1124.00
2018-02-03T13:09:57.313Z,1212.00
2018-02-03T13:10:57.295Z,1260.00
2018-02-03T13:11:57.290Z,1344.00
2018-02-03T13:12:57.283Z,1344.00
2018-02-03T13:13:57.276Z,1424.00
2018-02-03T13:14:57.270Z,1476.00
2018-02-03T13:15:57.263Z,1524.00
2018-02-03T13:16:57.252Z,1548.00
2018-02-03T13:17:57.249Z,1484.00
2018-02-03T13:18:57.242Z,1476.00
2018-02-03T13:19:57.233Z,1488.00
2018-02-03T13:20:57.223Z,1524.00
2018-02-03T13:21:57.219Z,1508.00
2018-02-03T13:22:57.216Z,1524.00
2018-02-03T13:23:57.272Z,1524.00
2018-02-03T13:24:57.200Z,1492.00
2018-02-03T13:25:57.206Z,1440.00
2018-02-03T13:26:57.184Z,1420.00
2018-02-03T13:27:57.180Z,1380.00
2018-02-03T13:28:57.172Z,1388.00
2018-02-03T13:29:57.165Z,1448.00
2018-02-03T13:30:57.157Z,1464.00
2018-02-03T13:31:57.160Z,1348.00
2018-02-03T13:32:57.148Z,1320.00
2018-02-03T13:33:57.145Z,1328.00
2018-02-03T13:34:57.129Z,1236.00
2018-02-03T13:35:57.123Z,1140.00